Time;durP1;ratioP1;P1;durP2;ratioP2;P2;SDS_P1;SDS_P2;PMS_P1;PMS_P2;Temp;Humidity;BMP_temperature;BMP_pressure;BME280_temperature;BME280_humidity;BME280_pressure;Samples;Min_cycle;Max_cycle;Signal;HPM_P1;HPM_P2
2023/10/29 00:00:17;;;;;;;4.53;3.40;;;25.60;99.90;;;;;;5013564;28;20105;-56
2023/10/29 00:02:44;;;;;;;4.13;3.20;;;25.60;99.90;;;;;;5013510;28;20449;-56
2023/10/29 00:05:10;;;;;;;4.35;2.92;;;25.60;99.90;;;;;;5013566;28;20356;-56
2023/10/29 00:07:36;;;;;;;5.68;3.38;;;25.60;99.90;;;;;;5013464;28;20108;-56
2023/10/29 00:10:02;;;;;;;4.85;3.10;;;25.50;99.90;;;;;;5013611;28;20093;-56
2023/10/29 00:12:28;;;;;;;4.97;3.50;;;25.50;99.90;;;;;;5013228;28;20156;-57
2023/10/29 00:14:54;;;;;;;7.75;3.47;;;25.50;99.90;;;;;;5013330;28;20097;-56
2023/10/29 00:17:20;;;;;;;4.03;2.95;;;25.50;99.90;;;;;;5013428;28;20041;-56
2023/10/29 00:19:45;;;;;;;5.32;2.78;;;25.50;99.90;;;;;;5013330;28;20475;-56
2023/10/29 00:22:11;;;;;;;8.48;3.10;;;25.50;99.90;;;;;;5013103;28;20425;-55
2023/10/29 00:24:37;;;;;;;5.88;3.47;;;25.50;99.90;;;;;;5013228;28;20026;-56
2023/10/29 00:27:03;;;;;;;5.25;3.25;;;25.50;99.90;;;;;;5013439;28;20036;-55
2023/10/29 00:29:29;;;;;;;5.63;3.42;;;25.40;99.90;;;;;;5012270;28;20109;-56
2023/10/29 00:31:55;;;;;;;6.70;3.45;;;25.40;99.90;;;;;;5012981;28;20164;-55
2023/10/29 00:34:20;;;;;;;5.13;3.10;;;25.40;99.90;;;;;;5013086;28;20049;-55
2023/10/29 00:36:46;;;;;;;5.32;3.72;;;25.40;99.90;;;;;;5012955;28;20096;-56
2023/10/29 00:39:12;;;;;;;4.72;3.08;;;25.40;99.90;;;;;;5013135;28;20022;-55
2023/10/29 00:41:38;;;;;;;7.10;3.35;;;25.40;99.90;;;;;;5012978;28;20033;-55
2023/10/29 00:44:04;;;;;;;4.72;3.30;;;25.40;99.90;;;;;;5013247;28;20470;-55
2023/10/29 00:46:31;;;;;;;7.18;3.50;;;25.40;99.90;;;;;;5012869;28;20026;-55
2023/10/29 00:48:57;;;;;;;4.80;3.10;;;25.40;99.90;;;;;;5012806;28;20391;-55
2023/10/29 00:51:23;;;;;;;6.15;3.63;;;25.40;99.90;;;;;;5012712;28;20026;-55
2023/10/29 00:53:49;;;;;;;5.28;3.47;;;25.40;99.90;;;;;;5012591;28;20051;-56
2023/10/29 00:56:18;;;;;;;4.65;3.00;;;25.30;99.90;;;;;;5011474;28;20037;-56
2023/10/29 00:58:46;;;;;;;5.22;3.13;;;25.30;99.90;;;;;;5012668;28;20021;-56
2023/10/29 01:01:12;;;;;;;5.13;2.92;;;25.30;99.90;;;;;;5032842;22;20079;-44
2023/10/29 01:03:37;;;;;;;4.57;2.35;;;25.30;99.90;;;;;;5014859;28;20470;-44
2023/10/29 01:06:04;;;;;;;4.60;2.92;;;25.30;99.90;;;;;;5032704;28;20021;-44
2023/10/29 01:08:30;;;;;;;5.43;3.00;;;25.30;99.90;;;;;;5014815;28;20025;-44
2023/10/29 01:10:55;;;;;;;5.32;3.15;;;25.30;99.90;;;;;;5032392;28;20030;-45
2023/10/29 01:13:21;;;;;;;3.65;2.58;;;25.30;99.90;;;;;;5014641;28;20030;-44
2023/10/29 01:15:47;;;;;;;4.50;3.30;;;25.20;99.90;;;;;;5032151;28;20026;-44
2023/10/29 01:18:13;;;;;;;7.70;3.40;;;25.20;99.90;;;;;;5014532;28;20108;-45
2023/10/29 01:20:39;;;;;;;5.05;2.97;;;25.20;99.90;;;;;;5032309;28;20029;-43
2023/10/29 01:23:05;;;;;;;5.28;2.75;;;25.20;99.90;;;;;;5032386;28;20036;-43
2023/10/29 01:25:30;;;;;;;4.68;2.30;;;25.20;99.90;;;;;;5032434;28;20484;-44
2023/10/29 01:27:56;;;;;;;4.70;2.80;;;25.20;99.90;;;;;;5032102;28;20057;-43
2023/10/29 01:30:23;;;;;;;4.25;2.85;;;25.20;99.90;;;;;;5014603;28;20035;-44
2023/10/29 01:32:49;;;;;;;4.38;2.85;;;25.20;99.90;;;;;;5031934;28;20033;-43
2023/10/29 01:35:15;;;;;;;4.35;2.53;;;25.20;99.90;;;;;;5031975;28;20024;-44
2023/10/29 01:37:41;;;;;;;5.63;2.90;;;25.20;99.90;;;;;;5031876;28;20021;-44
2023/10/29 01:40:07;;;;;;;4.50;2.60;;;25.10;99.90;;;;;;5032325;28;20026;-43
2023/10/29 01:42:33;;;;;;;4.40;2.90;;;25.10;99.90;;;;;;5035677;28;20034;-47
2023/10/29 01:44:59;;;;;;;4.60;2.97;;;25.10;99.90;;;;;;5035941;28;20101;-44
2023/10/29 01:47:25;;;;;;;4.88;2.83;;;25.10;99.90;;;;;;5035863;28;20057;-45
2023/10/29 01:49:50;;;;;;;4.07;2.85;;;25.10;99.90;;;;;;5035872;28;20040;-44
2023/10/29 01:52:16;;;;;;;3.70;2.25;;;25.10;99.90;;;;;;5018207;28;20307;-43
2023/10/29 01:54:43;;;;;;;4.15;2.53;;;25.10;99.90;;;;;;5035737;28;20029;-44
2023/10/29 01:57:09;;;;;;;4.10;2.47;;;25.10;99.90;;;;;;5036128;28;20025;-44
2023/10/29 01:59:35;;;;;;;4.05;2.67;;;25.10;99.90;;;;;;5035606;28;20409;-44
2023/10/29 02:02:00;;;;;;;4.47;2.63;;;25.10;99.90;;;;;;5035919;28;20053;-43
2023/10/29 02:04:27;;;;;;;4.25;2.80;;;25.10;99.90;;;;;;5035515;28;20488;-44
2023/10/29 02:06:56;;;;;;;4.25;2.72;;;25.00;99.90;;;;;;5035679;28;20559;-44
2023/10/29 02:09:22;;;;;;;3.55;2.22;;;25.00;99.90;;;;;;5019056;28;20038;-43
2023/10/29 02:11:48;;;;;;;3.40;2.20;;;25.00;99.90;;;;;;5013880;28;20018;-44
2023/10/29 02:14:14;;;;;;;4.57;2.30;;;25.00;99.90;;;;;;5013361;28;20390;-43
2023/10/29 02:16:40;;;;;;;3.83;2.25;;;25.00;99.90;;;;;;5014622;28;20093;-44
2023/10/29 02:19:06;;;;;;;4.53;2.42;;;25.00;99.90;;;;;;5014990;28;20470;-44
2023/10/29 02:21:34;;;;;;;3.05;2.20;;;25.00;99.90;;;;;;5015589;28;20030;-43
2023/10/29 02:24:01;;;;;;;7.22;2.78;;;25.00;99.90;;;;;;5015497;28;20022;-43
2023/10/29 02:26:27;;;;;;;4.43;2.55;;;25.00;99.90;;;;;;5015340;28;20100;-44
2023/10/29 02:28:53;;;;;;;4.97;2.95;;;25.00;99.90;;;;;;5015824;28;20050;-44
2023/10/29 02:31:20;;;;;;;3.40;1.95;;;24.90;99.90;;;;;;5015247;28;20034;-43
2023/10/29 02:33:46;;;;;;;3.90;2.70;;;24.90;99.90;;;;;;5015343;28;20045;-43
2023/10/29 02:36:12;;;;;;;3.42;2.05;;;24.90;99.90;;;;;;5015193;28;20263;-44
2023/10/29 02:38:40;;;;;;;4.47;2.55;;;24.90;99.90;;;;;;5015462;28;20054;-44
2023/10/29 02:41:06;;;;;;;3.75;1.83;;;24.90;99.90;;;;;;5015239;28;20364;-44
2023/10/29 02:43:32;;;;;;;4.40;2.20;;;24.90;99.90;;;;;;5015086;28;20092;-44
2023/10/29 02:45:58;;;;;;;6.13;2.20;;;24.80;99.90;;;;;;5014951;28;20026;-43
2023/10/29 02:48:25;;;;;;;5.30;2.63;;;24.80;99.90;;;;;;5015272;28;20021;-43
2023/10/29 02:50:51;;;;;;;4.30;2.50;;;24.80;99.90;;;;;;5015069;28;20099;-44
2023/10/29 02:53:17;;;;;;;4.35;2.40;;;24.80;99.90;;;;;;5013957;28;20502;-44
2023/10/29 02:55:43;;;;;;;3.20;2.22;;;24.80;99.90;;;;;;5014865;28;20053;-44
2023/10/29 02:58:09;;;;;;;2.60;1.92;;;24.70;99.90;;;;;;4997724;28;20026;-44
2023/10/29 03:00:35;;;;;;;2.70;1.95;;;24.70;99.90;;;;;;5015071;28;20073;-44
2023/10/29 03:03:01;;;;;;;3.85;2.15;;;24.80;99.90;;;;;;5014843;28;20437;-44
2023/10/29 03:05:27;;;;;;;3.85;2.00;;;24.70;99.90;;;;;;5014727;28;20100;-44
2023/10/29 03:07:53;;;;;;;3.92;2.35;;;24.70;99.90;;;;;;5014682;28;20497;-44
2023/10/29 03:10:19;;;;;;;2.25;1.83;;;24.70;99.90;;;;;;5014606;28;20032;-44
2023/10/29 03:12:45;;;;;;;3.03;1.90;;;24.70;99.90;;;;;;5014618;28;20034;-44
2023/10/29 03:15:10;;;;;;;2.78;1.95;;;24.70;99.90;;;;;;5014486;28;20508;-43
2023/10/29 03:17:36;;;;;;;3.83;2.13;;;24.70;99.90;;;;;;4996813;28;20029;-43
2023/10/29 03:20:03;;;;;;;3.15;1.80;;;24.70;99.90;;;;;;5014459;28;20022;-44
2023/10/29 03:22:28;;;;;;;4.70;2.47;;;24.70;99.90;;;;;;5014414;28;20033;-44
2023/10/29 03:24:54;;;;;;;3.40;2.25;;;24.70;99.90;;;;;;5014350;28;20026;-44
2023/10/29 03:27:20;;;;;;;5.13;2.42;;;24.70;99.90;;;;;;5014270;28;20363;-44
2023/10/29 03:29:46;;;;;;;2.97;1.67;;;24.60;99.90;;;;;;5014241;28;20108;-44
2023/10/29 03:32:12;;;;;;;3.10;1.92;;;24.60;99.90;;;;;;5014372;28;20042;-44
2023/10/29 03:34:38;;;;;;;3.45;1.90;;;24.60;99.90;;;;;;5014328;28;20041;-44
2023/10/29 03:37:05;;;;;;;5.13;1.92;;;24.60;99.90;;;;;;5014098;28;20108;-44
2023/10/29 03:39:31;;;;;;;3.55;1.77;;;24.60;99.90;;;;;;4996776;28;20379;-44
2023/10/29 03:41:57;;;;;;;4.95;2.10;;;24.60;99.90;;;;;;5014091;28;20044;-44
2023/10/29 03:44:23;;;;;;;3.90;2.25;;;24.60;99.90;;;;;;5014112;28;20104;-44
2023/10/29 03:46:52;;;;;;;3.03;2.08;;;24.50;99.90;;;;;;5013973;28;20018;-44
2023/10/29 03:49:18;;;;;;;3.70;1.90;;;24.50;99.90;;;;;;5014096;28;20030;-44
2023/10/29 03:51:46;;;;;;;3.05;1.77;;;24.50;99.90;;;;;;5014149;28;20022;-43
2023/10/29 03:54:12;;;;;;;2.78;2.00;;;24.50;99.90;;;;;;5013860;28;20034;-44
2023/10/29 03:56:37;;;;;;;3.55;1.73;;;24.50;99.90;;;;;;5013664;28;20026;-44
2023/10/29 03:59:03;;;;;;;2.67;1.58;;;24.50;99.90;;;;;;5013736;28;20108;-43
2023/10/29 04:01:29;;;;;;;3.00;1.60;;;24.50;99.90;;;;;;5033365;23;20417;-55
2023/10/29 04:03:55;;;;;;;3.88;1.73;;;24.50;99.90;;;;;;5033324;28;20128;-52
2023/10/29 04:06:21;;;;;;;2.92;1.73;;;24.50;99.90;;;;;;5033368;28;20028;-53
2023/10/29 04:08:47;;;;;;;2.33;2.00;;;24.40;99.90;;;;;;5015795;28;20503;-52
2023/10/29 04:11:13;;;;;;;3.65;2.03;;;24.50;99.90;;;;;;5033404;28;20167;-52
2023/10/29 04:13:39;;;;;;;3.05;1.63;;;24.40;99.90;;;;;;5015253;28;20044;-52
2023/10/29 04:16:05;;;;;;;2.08;1.63;;;24.40;99.90;;;;;;5033144;28;20088;-53
2023/10/29 04:18:33;;;;;;;3.03;1.70;;;24.40;99.90;;;;;;5033080;28;20026;-53
2023/10/29 04:21:02;;;;;;;2.92;1.83;;;24.40;99.90;;;;;;5033286;28;20017;-50
2023/10/29 04:23:28;;;;;;;2.28;1.52;;;24.40;99.90;;;;;;5033088;28;20032;-51
2023/10/29 04:25:54;;;;;;;3.03;1.83;;;24.40;99.90;;;;;;5032904;28;20022;-51
2023/10/29 04:28:19;;;;;;;2.58;1.52;;;24.40;99.90;;;;;;5032864;28;20084;-52
2023/10/29 04:30:46;;;;;;;3.33;1.85;;;24.40;99.90;;;;;;5033125;28;20025;-51
2023/10/29 04:33:12;;;;;;;4.45;1.90;;;24.30;99.90;;;;;;5032755;28;20034;-51
2023/10/29 04:35:38;;;;;;;2.95;1.70;;;24.30;99.90;;;;;;5032784;28;20474;-51
2023/10/29 04:38:04;;;;;;;3.70;2.20;;;24.30;99.90;;;;;;5032717;28;20025;-51
2023/10/29 04:40:29;;;;;;;2.67;1.38;;;24.30;99.90;;;;;;5015081;28;20521;-51
2023/10/29 04:42:55;;;;;;;3.08;1.88;;;24.30;99.90;;;;;;5032811;28;20112;-51
2023/10/29 04:45:21;;;;;;;2.03;1.45;;;24.30;99.90;;;;;;5032573;28;20381;-51
2023/10/29 04:47:47;;;;;;;2.10;1.60;;;24.30;99.90;;;;;;5032900;28;20037;-50
2023/10/29 04:50:13;;;;;;;3.00;1.50;;;24.30;99.90;;;;;;5032564;28;20025;-51
2023/10/29 04:52:38;;;;;;;3.03;1.95;;;24.30;99.90;;;;;;5032561;28;20127;-51
2023/10/29 04:55:05;;;;;;;2.53;1.60;;;24.30;99.90;;;;;;5032649;28;20067;-52
2023/10/29 04:57:31;;;;;;;3.08;1.25;;;24.30;99.90;;;;;;5032459;28;20017;-52
2023/10/29 04:59:57;;;;;;;2.50;1.73;;;24.30;99.90;;;;;;5032570;28;20028;-51
2023/10/29 05:02:23;;;;;;;4.25;1.90;;;24.30;99.90;;;;;;5032765;28;20076;-51
2023/10/29 05:04:52;;;;;;;2.65;1.45;;;24.20;99.90;;;;;;5032724;28;20022;-51
2023/10/29 05:07:18;;;;;;;2.42;1.42;;;24.20;99.90;;;;;;5032452;28;20029;-51
2023/10/29 05:09:44;;;;;;;2.85;1.80;;;24.20;99.90;;;;;;5032253;28;20075;-51
2023/10/29 05:12:10;;;;;;;2.05;1.33;;;24.20;99.90;;;;;;5032315;28;20068;-51
2023/10/29 05:14:36;;;;;;;3.75;1.70;;;24.20;99.90;;;;;;5032225;28;20030;-51
2023/10/29 05:17:02;;;;;;;3.03;1.63;;;24.20;99.90;;;;;;5031770;28;20071;-51
2023/10/29 05:19:28;;;;;;;2.28;1.45;;;24.20;99.90;;;;;;5032269;28;20528;-51
2023/10/29 05:21:54;;;;;;;2.92;1.45;;;24.20;99.90;;;;;;5032313;28;20436;-51
2023/10/29 05:24:20;;;;;;;2.35;1.30;;;24.10;99.90;;;;;;5032214;28;20087;-51
2023/10/29 05:26:46;;;;;;;3.55;1.33;;;24.20;99.90;;;;;;5032488;28;20104;-51
2023/10/29 05:29:12;;;;;;;4.20;1.75;;;24.10;99.90;;;;;;5028279;28;20033;-51
2023/10/29 05:31:38;;;;;;;1.77;1.52;;;24.10;99.90;;;;;;5014200;28;20528;-51
2023/10/29 05:34:05;;;;;;;2.88;1.58;;;24.10;99.90;;;;;;5027274;28;20033;-51
2023/10/29 05:36:31;;;;;;;1.80;1.30;;;24.10;99.90;;;;;;5031575;28;20013;-51
2023/10/29 05:38:57;;;;;;;3.22;1.60;;;24.10;99.90;;;;;;5031602;28;20489;-51
2023/10/29 05:41:23;;;;;;;3.00;1.80;;;24.10;99.90;;;;;;5031664;28;20025;-51
2023/10/29 05:43:49;;;;;;;4.03;1.50;;;24.10;99.90;;;;;;5029989;28;20018;-51
2023/10/29 05:46:16;;;;;;;2.40;1.67;;;24.10;99.90;;;;;;5029905;28;20376;-51
2023/10/29 05:48:42;;;;;;;2.90;1.73;;;24.10;99.90;;;;;;5031303;28;20032;-51
2023/10/29 05:51:12;;;;;;;3.75;2.00;;;24.10;99.90;;;;;;5031470;28;20034;-51
2023/10/29 05:53:39;;;;;;;1.88;1.67;;;24.10;99.90;;;;;;5031948;28;20087;-51
2023/10/29 05:56:05;;;;;;;3.78;2.17;;;24.00;99.90;;;;;;5031932;28;20018;-51
2023/10/29 05:58:31;;;;;;;4.03;2.20;;;24.00;99.90;;;;;;5031992;28;20053;-51
2023/10/29 06:00:57;;;;;;;2.85;1.52;;;24.00;99.90;;;;;;5028724;28;20049;-51
2023/10/29 06:03:24;;;;;;;2.10;1.48;;;24.00;99.90;;;;;;4995354;28;20096;-51
2023/10/29 06:05:51;;;;;;;4.07;2.00;;;24.00;99.90;;;;;;5011469;28;20049;-51
2023/10/29 06:08:17;;;;;;;2.78;1.65;;;24.00;99.90;;;;;;5011390;28;20585;-51
2023/10/29 06:10:43;;;;;;;2.88;1.70;;;24.00;99.90;;;;;;5012815;28;20125;-52
2023/10/29 06:13:09;;;;;;;3.05;1.50;;;24.00;99.90;;;;;;5010967;28;20030;-51
2023/10/29 06:15:35;;;;;;;3.53;2.35;;;24.00;99.90;;;;;;5011102;28;20029;-51
2023/10/29 06:18:04;;;;;;;2.08;1.80;;;23.90;99.90;;;;;;5011763;28;20022;-51
2023/10/29 06:20:30;;;;;;;2.47;1.40;;;23.90;99.90;;;;;;5011222;28;20389;-51
2023/10/29 06:22:55;;;;;;;4.57;1.98;;;23.90;99.90;;;;;;5012107;28;20029;-51
2023/10/29 06:25:21;;;;;;;4.18;1.70;;;23.90;99.90;;;;;;5012249;28;20022;-51
2023/10/29 06:27:47;;;;;;;2.58;1.98;;;24.00;99.90;;;;;;5012491;28;20030;-51
2023/10/29 06:30:13;;;;;;;3.20;1.63;;;23.90;99.90;;;;;;5015327;28;20465;-51
2023/10/29 06:32:39;;;;;;;3.53;2.20;;;23.90;99.90;;;;;;5015273;28;20030;-51
2023/10/29 06:35:06;;;;;;;3.33;1.80;;;23.90;99.90;;;;;;5015223;28;20064;-51
2023/10/29 06:37:32;;;;;;;3.70;1.75;;;23.90;99.90;;;;;;5015241;28;20021;-51
2023/10/29 06:39:57;;;;;;;2.42;1.58;;;23.90;99.90;;;;;;4997658;28;20028;-51
2023/10/29 06:42:23;;;;;;;2.50;1.70;;;23.90;99.90;;;;;;5015417;28;20335;-51
2023/10/29 06:44:49;;;;;;;2.38;1.55;;;23.90;99.90;;;;;;5015039;28;20168;-51
2023/10/29 06:47:15;;;;;;;2.90;1.58;;;23.90;99.90;;;;;;5015086;28;20030;-51
2023/10/29 06:49:41;;;;;;;2.53;1.60;;;23.90;99.90;;;;;;5015000;28;20093;-51
2023/10/29 06:52:08;;;;;;;3.92;1.70;;;23.90;99.90;;;;;;5014877;28;20371;-51
2023/10/29 06:54:34;;;;;;;2.92;1.63;;;23.90;99.90;;;;;;5014902;28;20030;-51
2023/10/29 06:57:01;;;;;;;2.38;1.52;;;23.90;99.90;;;;;;5014745;28;20082;-51
2023/10/29 06:59:28;;;;;;;3.28;1.70;;;23.90;99.90;;;;;;4997321;28;20072;-52
2023/10/29 07:01:57;;;;;;;10.68;1.95;;;23.90;99.90;;;;;;5014781;28;20172;-52
2023/10/29 07:04:22;;;;;;;4.70;2.20;;;23.90;99.90;;;;;;4997258;28;20038;-51
2023/10/29 07:06:49;;;;;;;5.20;1.85;;;23.90;99.90;;;;;;5014682;28;20536;-51
2023/10/29 07:09:15;;;;;;;2.70;1.50;;;23.90;99.90;;;;;;5014675;28;20025;-51
2023/10/29 07:11:45;;;;;;;3.08;1.73;;;23.90;99.90;;;;;;5014601;28;20473;-51
2023/10/29 07:14:12;;;;;;;3.63;2.33;;;24.00;99.90;;;;;;5014322;28;20083;-51
2023/10/29 07:16:43;;;;;;;3.33;1.60;;;24.00;99.90;;;;;;5019464;28;20025;-51
2023/10/29 07:19:13;;;;;;;5.57;2.00;;;24.00;99.90;;;;;;5034066;28;20048;-51
2023/10/29 07:21:39;;;;;;;5.57;2.20;;;24.00;99.90;;;;;;5034129;28;20045;-51
2023/10/29 07:24:06;;;;;;;3.65;2.25;;;24.10;99.90;;;;;;5034051;28;20054;-51
2023/10/29 07:26:33;;;;;;;3.80;1.85;;;24.10;99.90;;;;;;5034063;28;20107;-51
2023/10/29 07:28:59;;;;;;;5.28;1.83;;;24.10;99.90;;;;;;5034157;28;20024;-51
2023/10/29 07:31:25;;;;;;;4.68;1.83;;;24.10;99.90;;;;;;5033915;28;20033;-51
2023/10/29 07:33:52;;;;;;;3.50;2.00;;;24.20;99.90;;;;;;5033906;28;20500;-51
2023/10/29 07:36:18;;;;;;;3.13;1.67;;;24.20;99.90;;;;;;5033986;28;20116;-52
2023/10/29 07:38:44;;;;;;;6.53;2.08;;;24.20;99.90;;;;;;5033384;28;20032;-53
2023/10/29 07:41:10;;;;;;;3.90;1.63;;;24.30;99.90;;;;;;5033995;28;20544;-52
2023/10/29 07:43:36;;;;;;;3.28;1.80;;;24.30;99.90;;;;;;5033793;28;20097;-52
2023/10/29 07:46:03;;;;;;;6.50;2.08;;;24.30;99.90;;;;;;5033494;28;20109;-51
2023/10/29 07:48:28;;;;;;;7.35;1.83;;;24.30;99.90;;;;;;5033370;28;20087;-52
2023/10/29 07:50:55;;;;;;;2.75;1.77;;;24.40;99.90;;;;;;5034128;28;20029;-52
2023/10/29 07:53:21;;;;;;;3.45;1.80;;;24.40;99.90;;;;;;5033667;28;20041;-51
2023/10/29 07:55:47;;;;;;;6.30;2.35;;;24.40;99.90;;;;;;5033469;28;20366;-51
2023/10/29 07:58:12;;;;;;;2.78;1.45;;;24.50;99.90;;;;;;5015712;28;20033;-51
2023/10/29 08:00:39;;;;;;;4.35;1.80;;;24.50;99.90;;;;;;5032867;28;20388;-51
2023/10/29 08:03:05;;;;;;;5.85;1.85;;;24.50;99.90;;;;;;5033330;28;20048;-53
2023/10/29 08:05:31;;;;;;;3.22;1.55;;;24.50;99.90;;;;;;5033305;28;20436;-52
2023/10/29 08:07:56;;;;;;;4.05;1.88;;;24.60;99.90;;;;;;5033564;28;20100;-52
2023/10/29 08:10:24;;;;;;;4.13;2.10;;;24.60;99.90;;;;;;5032773;28;20055;-52
2023/10/29 08:12:50;;;;;;;;;;;24.60;99.90;;;;;;5033498;28;20120;-51
2023/10/29 08:15:16;;;;;;;3.88;1.60;;;24.70;99.90;;;;;;5033067;28;19963;-51
2023/10/29 08:17:42;;;;;;;5.25;1.75;;;24.70;99.90;;;;;;5032832;28;20389;-52
2023/10/29 08:20:09;;;;;;;3.67;2.08;;;24.70;99.90;;;;;;5015146;28;20027;-52
2023/10/29 08:22:34;;;;;;;3.30;1.88;;;24.70;99.90;;;;;;5033112;28;20392;-52
2023/10/29 08:25:00;;;;;;;3.67;1.70;;;24.70;99.90;;;;;;5032924;28;20025;-51
2023/10/29 08:27:26;;;;;;;2.47;1.80;;;24.80;99.90;;;;;;5033173;28;20477;-51
2023/10/29 08:29:53;;;;;;;9.35;2.25;;;24.80;99.90;;;;;;5032455;28;20077;-51
2023/10/29 08:32:18;;;;;;;2.97;1.73;;;24.90;99.90;;;;;;5032354;28;20029;-51
2023/10/29 08:34:45;;;;;;;6.35;2.17;;;24.90;99.90;;;;;;5031400;28;20032;-51
2023/10/29 08:37:10;;;;;;;4.15;1.67;;;24.90;99.90;;;;;;5032833;28;20048;-51
2023/10/29 08:39:37;;;;;;;3.65;1.88;;;24.90;99.90;;;;;;5032775;28;20046;-51
2023/10/29 08:42:03;;;;;;;7.78;2.28;;;25.00;99.90;;;;;;5032596;28;20392;-51
2023/10/29 08:44:29;;;;;;;6.75;2.03;;;25.00;99.90;;;;;;5016886;28;20033;-51
2023/10/29 08:46:55;;;;;;;11.00;2.10;;;25.00;99.90;;;;;;5019552;28;20393;-51
2023/10/29 08:49:21;;;;;;;6.30;1.80;;;25.00;99.90;;;;;;5032357;28;20020;-51
2023/10/29 08:51:46;;;;;;;3.70;1.58;;;25.10;99.90;;;;;;5031482;28;20021;-51
2023/10/29 08:54:12;;;;;;;6.18;2.03;;;25.10;99.90;;;;;;5032166;28;20108;-51
2023/10/29 08:56:38;;;;;;;4.22;2.03;;;25.10;99.90;;;;;;5031974;28;20045;-51
2023/10/29 08:59:05;;;;;;;3.83;2.03;;;25.10;99.90;;;;;;5032210;28;20144;-52
2023/10/29 09:01:34;;;;;;;4.45;1.92;;;25.10;99.90;;;;;;5032176;28;20087;-51
2023/10/29 09:04:00;;;;;;;10.27;3.15;;;25.20;99.90;;;;;;5031766;28;20495;-52
2023/10/29 09:06:27;;;;;;;6.28;2.17;;;25.20;99.90;;;;;;5016175;28;20025;-52
2023/10/29 09:08:52;;;;;;;4.03;2.13;;;25.20;99.90;;;;;;5021694;28;20076;-51
2023/10/29 09:11:19;;;;;;;3.33;2.13;;;25.30;99.90;;;;;;5031542;28;20022;-52
2023/10/29 09:13:44;;;;;;;5.80;2.08;;;25.30;99.90;;;;;;5031634;28;20032;-51
2023/10/29 09:16:10;;;;;;;4.53;2.00;;;25.30;99.90;;;;;;5030114;28;20021;-52
2023/10/29 09:18:36;;;;;;;4.70;2.20;;;25.40;99.90;;;;;;5029417;28;20038;-51
2023/10/29 09:21:03;;;;;;;4.28;2.45;;;25.40;99.90;;;;;;5029968;28;20306;-52
2023/10/29 09:23:29;;;;;;;4.15;2.80;;;25.40;99.90;;;;;;5030066;28;20029;-51
2023/10/29 09:25:57;;;;;;;6.00;2.50;;;25.50;99.90;;;;;;5029569;28;20028;-51
2023/10/29 09:28:22;;;;;;;6.97;2.72;;;25.50;99.90;;;;;;5029999;28;20024;-52
2023/10/29 09:30:48;;;;;;;6.05;2.60;;;25.50;99.90;;;;;;5031488;28;20029;-52
2023/10/29 09:33:15;;;;;;;4.25;2.25;;;25.60;99.90;;;;;;5031607;28;20034;-52
2023/10/29 09:35:42;;;;;;;4.88;2.53;;;25.60;99.90;;;;;;5032080;28;20441;-51
2023/10/29 09:38:08;;;;;;;4.40;2.10;;;25.60;99.90;;;;;;5032149;28;20053;-52
2023/10/29 09:40:35;;;;;;;4.13;2.42;;;25.70;99.90;;;;;;5031452;28;20032;-52
2023/10/29 09:43:07;;;;;;;2.22;1.80;;;25.70;99.90;;;;;;5031548;28;20022;-52
2023/10/29 09:45:37;;;;;;;5.50;2.65;;;25.80;99.90;;;;;;5031963;28;20037;-52
2023/10/29 09:48:04;;;;;;;4.60;2.45;;;25.80;99.90;;;;;;5032204;28;20025;-52
2023/10/29 09:50:30;;;;;;;3.38;2.60;;;25.80;99.90;;;;;;5032171;28;20402;-51
2023/10/29 09:53:01;;;;;;;4.40;2.40;;;25.90;99.90;;;;;;5031732;28;20366;-53
2023/10/29 09:55:29;;;;;;;5.10;2.53;;;25.90;99.90;;;;;;5031343;28;20022;-52
2023/10/29 09:57:55;;;;;;;5.88;2.30;;;26.00;99.90;;;;;;5031617;28;20057;-52
2023/10/29 10:00:21;;;;;;;10.10;2.42;;;26.00;99.90;;;;;;5031757;28;20026;-52
2023/10/29 10:02:57;;;;;;;2.95;2.10;;;26.10;99.90;;;;;;5033887;28;20653;-51
2023/10/29 10:05:25;;;;;;;4.90;2.03;;;26.10;99.90;;;;;;5017774;28;20041;-52
2023/10/29 10:07:52;;;;;;;;;;;26.20;99.90;;;;;;5035663;28;20017;-52
2023/10/29 10:10:21;;;;;;;3.45;2.00;;;26.20;99.90;;;;;;5035403;28;19996;-52
2023/10/29 10:12:49;;;;;;;4.28;1.90;;;26.30;99.90;;;;;;5035329;28;20115;-52
2023/10/29 10:15:17;;;;;;;3.97;2.22;;;26.30;99.90;;;;;;5035472;28;20327;-53
2023/10/29 10:17:57;;;;;;;3.85;2.13;;;26.40;99.90;;;;;;5034980;28;20017;-53
2023/10/29 10:20:23;;;;;;;4.10;2.15;;;26.40;99.90;;;;;;5032842;28;20033;-52
2023/10/29 10:23:00;;;;;;;3.92;2.10;;;26.50;99.90;;;;;;5035001;28;20029;-52
2023/10/29 10:25:26;;;;;;;;;;;26.50;99.90;;;;;;5035621;28;20630;-53
2023/10/29 10:27:57;;;;;;;3.83;2.28;;;26.50;99.90;;;;;;5035226;28;19912;-53
2023/10/29 10:30:32;;;;;;;6.18;2.42;;;26.60;99.90;;;;;;5035081;28;20033;-52
2023/10/29 10:33:13;;;;;;;7.85;2.28;;;26.60;99.90;;;;;;5034964;28;20401;-53
2023/10/29 10:35:44;;;;;;;4.68;2.38;;;26.70;99.90;;;;;;5035063;28;20026;-53
2023/10/29 10:38:11;;;;;;;4.45;2.20;;;26.70;99.90;;;;;;5034986;28;20481;-52
2023/10/29 10:40:37;;;;;;;4.63;2.77;;;26.70;99.90;;;;;;5035070;28;20021;-52
2023/10/29 10:43:04;;;;;;;5.50;2.58;;;26.80;99.90;;;;;;5035156;28;20029;-52
2023/10/29 10:45:33;;;;;;;3.47;2.17;;;26.80;99.90;;;;;;5017070;28;20026;-53
2023/10/29 10:48:04;;;;;;;4.35;2.20;;;26.80;99.90;;;;;;5016611;28;20116;-52
2023/10/29 10:50:31;;;;;;;6.13;2.40;;;26.90;99.90;;;;;;5034687;28;20029;-52
2023/10/29 10:52:57;;;;;;;25.33;3.55;;;26.90;99.90;;;;;;5034588;28;20029;-52
2023/10/29 10:55:24;;;;;;;6.23;2.17;;;26.90;99.90;;;;;;5034257;28;20030;-52
2023/10/29 10:57:51;;;;;;;5.70;2.15;;;26.90;99.90;;;;;;5034707;28;20091;-52
2023/10/29 11:00:18;;;;;;;2.70;1.98;;;27.00;99.90;;;;;;5034689;28;20026;-52
2023/10/29 11:02:44;;;;;;;3.67;2.17;;;27.00;99.90;;;;;;5034309;28;20474;-52
2023/10/29 11:05:12;;;;;;;5.23;2.40;;;27.00;99.90;;;;;;5034546;28;20018;-52
2023/10/29 11:07:41;;;;;;;2.38;1.80;;;27.00;99.90;;;;;;5034958;28;20525;-52
2023/10/29 11:10:11;;;;;;;6.55;2.28;;;27.00;99.90;;;;;;5034457;28;20041;-52
2023/10/29 11:12:38;;;;;;;6.90;2.20;;;27.00;99.90;;;;;;5034471;28;20061;-52
2023/10/29 11:15:17;;;;;;;6.18;2.33;;;27.00;99.90;;;;;;5033655;28;20091;-52
2023/10/29 11:18:12;;;;;;;3.05;2.00;;;27.10;99.90;;;;;;5034077;28;20033;-52
2023/10/29 11:20:47;;;;;;;3.65;2.03;;;27.00;99.90;;;;;;5005109;28;20561;-52
2023/10/29 11:23:14;;;;;;;5.53;2.10;;;27.10;99.90;;;;;;5014232;28;20042;-52
2023/10/29 11:25:41;;;;;;;3.42;2.33;;;27.10;99.90;;;;;;4996559;28;20741;-53
2023/10/29 11:28:33;;;;;;;3.53;2.00;;;27.10;99.90;;;;;;5014068;28;20084;-52
2023/10/29 11:31:16;;;;;;;3.70;2.40;;;27.20;99.90;;;;;;5030963;28;20033;-53
2023/10/29 11:33:44;;;;;;;2.78;2.35;;;27.20;99.90;;;;;;5033957;28;20087;-53
2023/10/29 11:36:50;;;;;;;3.70;2.35;;;27.20;99.90;;;;;;5034183;28;20024;-53
2023/10/29 11:39:16;;;;;;;4.30;2.38;;;27.20;99.90;;;;;;4972866;28;20135;-53
2023/10/29 11:41:43;;;;;;;3.45;2.10;;;27.20;99.90;;;;;;4972988;28;20061;-53
2023/10/29 11:44:24;;;;;;;6.57;2.75;;;27.10;99.90;;;;;;5002464;28;20037;-53
2023/10/29 11:46:59;;;;;;;6.25;2.10;;;27.10;99.90;;;;;;5033210;28;20080;-53
2023/10/29 11:49:30;;;;;;;2.58;1.92;;;27.10;99.90;;;;;;5033202;28;20034;-53
2023/10/29 11:52:03;;;;;;;4.47;2.40;;;27.10;99.90;;;;;;5015761;28;20104;-52
2023/10/29 11:54:32;;;;;;;5.65;2.33;;;27.10;99.90;;;;;;5033327;28;20037;-52
2023/10/29 11:56:58;;;;;;;5.03;2.42;;;27.10;99.90;;;;;;5032996;28;20025;-52
2023/10/29 11:59:25;;;;;;;5.38;2.92;;;27.10;99.90;;;;;;5033387;28;20022;-52
2023/10/29 12:01:52;;;;;;;7.00;2.55;;;27.10;99.90;;;;;;5033350;28;20100;-52
2023/10/29 12:04:17;;;;;;;4.37;2.03;;;27.10;99.90;;;;;;5033328;28;20022;-52
2023/10/29 12:06:46;;;;;;;2.95;2.00;;;27.10;99.90;;;;;;5033147;28;20030;-52
2023/10/29 12:09:17;;;;;;;7.88;2.28;;;27.10;99.90;;;;;;5033261;28;20017;-52
2023/10/29 12:11:43;;;;;;;7.57;2.15;;;27.10;99.90;;;;;;5033093;28;20022;-52
2023/10/29 12:14:09;;;;;;;4.03;2.30;;;27.10;99.90;;;;;;5015395;28;20038;-51
2023/10/29 12:16:35;;;;;;;5.20;2.13;;;27.20;99.90;;;;;;5032872;28;20018;-52
2023/10/29 12:19:04;;;;;;;6.15;2.65;;;27.20;99.90;;;;;;5032853;28;20174;-52
2023/10/29 12:21:30;;;;;;;5.40;2.30;;;27.20;99.90;;;;;;5032998;28;20021;-51
2023/10/29 12:23:57;;;;;;;5.00;2.35;;;27.20;99.90;;;;;;5033021;28;20017;-52
2023/10/29 12:26:25;;;;;;;5.20;2.35;;;27.20;99.90;;;;;;5020229;28;20036;-52
2023/10/29 12:28:52;;;;;;;5.20;2.72;;;27.20;99.90;;;;;;5017787;28;20103;-51
2023/10/29 12:31:27;;;;;;;6.28;2.58;;;27.20;99.90;;;;;;5013388;28;20021;-52
2023/10/29 12:34:00;;;;;;;5.15;2.33;;;27.20;99.90;;;;;;5026920;28;20041;-52
2023/10/29 12:36:26;;;;;;;3.75;2.35;;;27.20;99.90;;;;;;5032241;28;20017;-52
2023/10/29 12:38:53;;;;;;;5.20;2.40;;;27.20;99.90;;;;;;5032930;28;20737;-52
2023/10/29 12:41:23;;;;;;;4.50;2.30;;;27.20;99.90;;;;;;5032346;28;20588;-52
2023/10/29 12:43:52;;;;;;;5.90;2.33;;;27.20;99.90;;;;;;5031762;28;20108;-52
2023/10/29 12:46:23;;;;;;;4.85;2.30;;;27.20;99.90;;;;;;5031790;28;20013;-52